PWSweather.com
Personal Weather Stations
Station Observations
KCTCOLEB1
Sandy Brook, Colebrook, CT 06021

Sandy BrookColebrook, CT 06021

Lat: 42.0018, Lon: -73.0825

Elevation: 935

Station Type: Davis Vantage Pro2 + Solar + UV

High Low Average
Temperature 40.9°F4.9°C 23.9°F-4.5°C 32.8°F0.4°C
Dew Point 27.0°F-2.8°C 11.7°F-11.3°C 19.2°F-7.1°C
Winds 6.9 mph 11.1 kmh Calm Calm 2.0 mph SSW3.2 kmh SSW
Wind Gusts 13.8 mph22.2 kmh -- 4.0 mph6.4 kmh
Humidity 89% 33% 60%
Pressure 30.39 in1029.1 mb 29.84 in1010.5 mb -
Precipitation 0.00 in0.0 mm - -
Hour Temp Dew Point Humidity Winds Wind Gusts Pressure Precip Precip Rate Daily Precip Total
12:00 AM 33.6°F0.9°C 26.5°F-3.1°C 75% 2.3 mph N3.7 kmh N 3.5 mph5.6 kmh 29.84 in1010.5 mb - 0.00 in0.0 mm 0.00 in0.0 mm
12:10 AM 33.5°F0.8°C 26.7°F-2.9°C 76% 2.3 mph N3.7 kmh N 3.5 mph5.6 kmh 29.85 in1010.8 mb - 0.00 in0.0 mm 0.00 in0.0 mm
12:20 AM 33.4°F0.8°C 27.0°F-2.8°C 77% 2.3 mph N3.7 kmh N 3.5 mph5.6 kmh 29.85 in1010.8 mb - 0.00 in0.0 mm 0.00 in0.0 mm
12:30 AM 33.3°F0.7°C 26.5°F-3.1°C 76% 3.5 mph NNE5.6 kmh NNE 3.5 mph5.6 kmh 29.86 in1011.2 mb - 0.00 in0.0 mm 0.00 in0.0 mm
12:40 AM 33.3°F0.7°C 26.9°F-2.8°C 77% Calm Calm 4.6 mph7.4 kmh 29.86 in1011.2 mb - 0.00 in0.0 mm 0.00 in0.0 mm
12:50 AM 33.1°F0.6°C 26.7°F-2.9°C 77% 2.3 mph NE3.7 kmh NE 3.5 mph5.6 kmh 29.87 in1011.5 mb - 0.00 in0.0 mm 0.00 in0.0 mm
01:00 AM 32.8°F0.4°C 26.4°F-3.1°C 77% 2.3 mph N3.7 kmh N 3.5 mph5.6 kmh 29.86 in1011.2 mb - 0.00 in0.0 mm 0.00 in0.0 mm
01:10 AM 32.6°F0.3°C 26.2°F-3.2°C 77% 2.3 mph N3.7 kmh N 3.5 mph5.6 kmh 29.87 in1011.5 mb - 0.00 in0.0 mm 0.00 in0.0 mm
01:20 AM 32.5°F0.3°C 26.1°F-3.3°C 77% 2.3 mph N3.7 kmh N 3.5 mph5.6 kmh 29.87 in1011.5 mb - 0.00 in0.0 mm 0.00 in0.0 mm
01:30 AM 32.5°F0.3°C 25.8°F-3.4°C 76% 2.3 mph NE3.7 kmh NE 3.5 mph5.6 kmh 29.87 in1011.5 mb - 0.00 in0.0 mm 0.00 in0.0 mm
01:40 AM 32.4°F0.2°C 25.7°F-3.5°C 76% 2.3 mph NNE3.7 kmh NNE 3.5 mph5.6 kmh 29.87 in1011.5 mb - 0.00 in0.0 mm 0.00 in0.0 mm
01:50 AM 32.3°F0.2°C 25.6°F-3.6°C 76% 2.3 mph N3.7 kmh N 2.3 mph3.7 kmh 29.87 in1011.5 mb - 0.00 in0.0 mm 0.00 in0.0 mm
02:00 AM 32.2°F0.1°C 25.8°F-3.4°C 77% 2.3 mph NNE3.7 kmh NNE 3.5 mph5.6 kmh 29.87 in1011.5 mb - 0.00 in0.0 mm 0.00 in0.0 mm
02:10 AM 32.0°F0.0°C 25.7°F-3.5°C 77% 3.5 mph N5.6 kmh N 12.7 mph20.4 kmh 29.87 in1011.5 mb - 0.00 in0.0 mm 0.00 in0.0 mm
02:20 AM 31.8°F-0.1°C 25.7°F-3.5°C 78% 1.2 mph NNE1.9 kmh NNE 3.5 mph5.6 kmh 29.88 in1011.9 mb - 0.00 in0.0 mm 0.00 in0.0 mm
02:30 AM 31.6°F-0.2°C 25.8°F-3.4°C 79% 2.3 mph NNE3.7 kmh NNE 4.6 mph7.4 kmh 29.88 in1011.9 mb - 0.00 in0.0 mm 0.00 in0.0 mm
02:40 AM 31.4°F-0.3°C 25.6°F-3.6°C 79% 2.3 mph N3.7 kmh N 10.4 mph16.7 kmh 29.88 in1011.9 mb - 0.00 in0.0 mm 0.00 in0.0 mm
02:50 AM 31.3°F-0.4°C 25.2°F-3.8°C 78% 4.6 mph N7.4 kmh N 5.8 mph9.3 kmh 29.88 in1011.9 mb - 0.00 in0.0 mm 0.00 in0.0 mm
03:00 AM 31.2°F-0.4°C 24.8°F-4.0°C 77% 3.5 mph NNE5.6 kmh NNE 6.9 mph11.1 kmh 29.89 in1012.2 mb - 0.00 in0.0 mm 0.00 in0.0 mm
03:10 AM 31.2°F-0.4°C 24.8°F-4.0°C 77% 2.3 mph N3.7 kmh N 2.3 mph3.7 kmh 29.90 in1012.5 mb - 0.00 in0.0 mm 0.00 in0.0 mm
03:20 AM 31.0°F-0.6°C 25.2°F-3.8°C 79% 3.5 mph NE5.6 kmh NE 4.6 mph7.4 kmh 29.90 in1012.5 mb - 0.00 in0.0 mm 0.00 in0.0 mm
03:30 AM 30.9°F-0.6°C 25.5°F-3.6°C 80% 2.3 mph N3.7 kmh N 3.5 mph5.6 kmh 29.91 in1012.9 mb - 0.00 in0.0 mm 0.00 in0.0 mm
03:40 AM 30.7°F-0.7°C 26.1°F-3.3°C 83% 2.3 mph N3.7 kmh N 5.8 mph9.3 kmh 29.92 in1013.2 mb - 0.00 in0.0 mm 0.00 in0.0 mm
03:50 AM 30.3°F-0.9°C 26.6°F-3.0°C 86% 2.3 mph N3.7 kmh N 3.5 mph5.6 kmh 29.93 in1013.5 mb - 0.00 in0.0 mm 0.00 in0.0 mm
04:00 AM 29.8°F-1.2°C 26.7°F-2.9°C 88% 3.5 mph N5.6 kmh N 5.8 mph9.3 kmh 29.93 in1013.5 mb - 0.00 in0.0 mm 0.00 in0.0 mm
04:10 AM 29.4°F-1.4°C 26.6°F-3.0°C 89% 2.3 mph NNE3.7 kmh NNE 3.5 mph5.6 kmh 29.94 in1013.9 mb - 0.00 in0.0 mm 0.00 in0.0 mm
04:20 AM 29.2°F-1.6°C 26.1°F-3.3°C 88% 2.3 mph NE3.7 kmh NE 3.5 mph5.6 kmh 29.95 in1014.2 mb - 0.00 in0.0 mm 0.00 in0.0 mm
04:30 AM 29.2°F-1.6°C 25.5°F-3.6°C 86% 2.3 mph N3.7 kmh N 3.5 mph5.6 kmh 29.96 in1014.6 mb - 0.00 in0.0 mm 0.00 in0.0 mm
04:40 AM 29.4°F-1.4°C 24.9°F-3.9°C 83% 1.2 mph NE1.9 kmh NE 2.3 mph3.7 kmh 29.96 in1014.6 mb - 0.00 in0.0 mm 0.00 in0.0 mm
04:50 AM 29.6°F-1.3°C 24.2°F-4.3°C 80% 2.3 mph NNW3.7 kmh NNW 3.5 mph5.6 kmh 29.96 in1014.6 mb - 0.00 in0.0 mm 0.00 in0.0 mm
05:00 AM 29.8°F-1.2°C 23.8°F-4.6°C 78% 3.5 mph NW5.6 kmh NW 6.9 mph11.1 kmh 29.97 in1014.9 mb - 0.00 in0.0 mm 0.00 in0.0 mm
05:10 AM 29.9°F-1.2°C 23.6°F-4.7°C 77% 1.2 mph N1.9 kmh N 2.3 mph3.7 kmh 29.98 in1015.2 mb - 0.00 in0.0 mm 0.00 in0.0 mm
05:20 AM 29.9°F-1.2°C 23.3°F-4.8°C 76% 2.3 mph NNE3.7 kmh NNE 4.6 mph7.4 kmh 29.98 in1015.2 mb - 0.00 in0.0 mm 0.00 in0.0 mm
05:30 AM 29.9°F-1.2°C 22.9°F-5.1°C 75% 2.3 mph N3.7 kmh N 4.6 mph7.4 kmh 29.98 in1015.2 mb - 0.00 in0.0 mm 0.00 in0.0 mm
05:40 AM 29.7°F-1.3°C 22.7°F-5.2°C 75% 2.3 mph NNE3.7 kmh NNE 5.8 mph9.3 kmh 29.98 in1015.2 mb - 0.00 in0.0 mm 0.00 in0.0 mm
05:50 AM 29.5°F-1.4°C 22.6°F-5.2°C 75% 2.3 mph W3.7 kmh W 3.5 mph5.6 kmh 29.99 in1015.6 mb - 0.00 in0.0 mm 0.00 in0.0 mm
06:00 AM 29.4°F-1.4°C 22.8°F-5.1°C 76% 2.3 mph NNW3.7 kmh NNW 3.5 mph5.6 kmh 30.00 in1015.9 mb - 0.00 in0.0 mm 0.00 in0.0 mm
06:10 AM 29.4°F-1.4°C 22.8°F-5.1°C 76% 2.3 mph N3.7 kmh N 4.6 mph7.4 kmh 30.00 in1015.9 mb - 0.00 in0.0 mm 0.00 in0.0 mm
06:20 AM 29.4°F-1.4°C 22.8°F-5.1°C 76% 3.5 mph N5.6 kmh N 4.6 mph7.4 kmh 30.01 in1016.3 mb - 0.00 in0.0 mm 0.00 in0.0 mm
06:30 AM 29.4°F-1.4°C 22.8°F-5.1°C 76% 2.3 mph N3.7 kmh N 3.5 mph5.6 kmh 30.02 in1016.6 mb - 0.00 in0.0 mm 0.00 in0.0 mm
06:40 AM 29.5°F-1.4°C 22.5°F-5.3°C 75% 3.5 mph N5.6 kmh N 5.8 mph9.3 kmh 30.02 in1016.6 mb - 0.00 in0.0 mm 0.00 in0.0 mm
06:50 AM 29.6°F-1.3°C 22.3°F-5.4°C 74% 3.5 mph NNE5.6 kmh NNE 8.1 mph13.0 kmh 30.03 in1016.9 mb - 0.00 in0.0 mm 0.00 in0.0 mm
07:00 AM 29.7°F-1.3°C 21.8°F-5.7°C 72% 2.3 mph N3.7 kmh N 3.5 mph5.6 kmh 30.04 in1017.3 mb - 0.00 in0.0 mm 0.00 in0.0 mm
07:10 AM 30.0°F-1.1°C 22.3°F-5.4°C 73% 1.2 mph N1.9 kmh N 3.5 mph5.6 kmh 30.05 in1017.6 mb - 0.00 in0.0 mm 0.00 in0.0 mm
07:20 AM 30.2°F-1.0°C 21.9°F-5.6°C 71% 3.5 mph N5.6 kmh N 4.6 mph7.4 kmh 30.05 in1017.6 mb - 0.00 in0.0 mm 0.00 in0.0 mm
07:30 AM 30.5°F-0.8°C 21.5°F-5.8°C 69% 3.5 mph 5.6 kmh 8.1 mph13.0 kmh 30.05 in1017.6 mb - 0.00 in0.0 mm 0.00 in0.0 mm
07:40 AM 31.0°F-0.6°C 21.3°F-5.9°C 67% 4.6 mph WNW7.4 kmh WNW 11.5 mph18.5 kmh 30.06 in1017.9 mb - 0.00 in0.0 mm 0.00 in0.0 mm
07:50 AM 31.5°F-0.3°C 21.4°F-5.9°C 66% 3.5 mph N5.6 kmh N 5.8 mph9.3 kmh 30.06 in1017.9 mb - 0.00 in0.0 mm 0.00 in0.0 mm
08:00 AM 31.6°F-0.2°C 20.8°F-6.2°C 64% 2.3 mph NNW3.7 kmh NNW 5.8 mph9.3 kmh 30.06 in1017.9 mb - 0.00 in0.0 mm 0.00 in0.0 mm
08:10 AM 32.0°F0.0°C 20.8°F-6.2°C 63% 1.2 mph N1.9 kmh N 2.3 mph3.7 kmh 30.07 in1018.3 mb - 0.00 in0.0 mm 0.00 in0.0 mm
08:20 AM 32.4°F0.2°C 20.4°F-6.4°C 61% 4.6 mph ESE7.4 kmh ESE 8.1 mph13.0 kmh 30.08 in1018.6 mb - 0.00 in0.0 mm 0.00 in0.0 mm
08:30 AM 32.4°F0.2°C 19.7°F-6.8°C 59% 2.3 mph N3.7 kmh N 4.6 mph7.4 kmh 30.09 in1019.0 mb - 0.00 in0.0 mm 0.00 in0.0 mm
08:40 AM 32.6°F0.3°C 20.2°F-6.6°C 60% 2.3 mph WNW3.7 kmh WNW 5.8 mph9.3 kmh 30.09 in1019.0 mb - 0.00 in0.0 mm 0.00 in0.0 mm
08:50 AM 32.9°F0.5°C 20.6°F-6.3°C 60% 4.6 mph NNE7.4 kmh NNE 6.9 mph11.1 kmh 30.10 in1019.3 mb - 0.00 in0.0 mm 0.00 in0.0 mm
09:00 AM 33.3°F0.7°C 19.3°F-7.1°C 56% 4.6 mph N7.4 kmh N 6.9 mph11.1 kmh 30.11 in1019.6 mb - 0.00 in0.0 mm 0.00 in0.0 mm
09:10 AM 33.3°F0.7°C 20.1°F-6.6°C 58% 2.3 mph N3.7 kmh N 3.5 mph5.6 kmh 30.11 in1019.6 mb - 0.00 in0.0 mm 0.00 in0.0 mm
09:20 AM 33.4°F0.8°C 19.4°F-7.0°C 56% 2.3 mph N3.7 kmh N 3.5 mph5.6 kmh 30.12 in1020.0 mb - 0.00 in0.0 mm 0.00 in0.0 mm
09:30 AM 34.6°F1.4°C 19.7°F-6.8°C 54% 2.3 mph N3.7 kmh N 5.8 mph9.3 kmh 30.11 in1019.6 mb - 0.00 in0.0 mm 0.00 in0.0 mm
09:40 AM 35.3°F1.8°C 18.9°F-7.3°C 51% 3.5 mph NNW5.6 kmh NNW 3.5 mph5.6 kmh 30.12 in1020.0 mb - 0.00 in0.0 mm 0.00 in0.0 mm
09:50 AM 35.0°F1.7°C 18.2°F-7.7°C 50% 4.6 mph NNE7.4 kmh NNE 5.8 mph9.3 kmh 30.12 in1020.0 mb - 0.00 in0.0 mm 0.00 in0.0 mm
10:00 AM 34.2°F1.2°C 17.9°F-7.8°C 51% 3.5 mph N5.6 kmh N 6.9 mph11.1 kmh 30.12 in1020.0 mb - 0.00 in0.0 mm 0.00 in0.0 mm
10:10 AM 34.5°F1.4°C 17.3°F-8.2°C 49% 2.3 mph NNW3.7 kmh NNW 4.6 mph7.4 kmh 30.13 in1020.3 mb - 0.00 in0.0 mm 0.00 in0.0 mm
10:20 AM 34.7°F1.5°C 17.5°F-8.1°C 49% 2.3 mph NE3.7 kmh NE 3.5 mph5.6 kmh 30.13 in1020.3 mb - 0.00 in0.0 mm 0.00 in0.0 mm
10:30 AM 35.5°F1.9°C 17.2°F-8.2°C 47% 3.5 mph NNW5.6 kmh NNW 3.5 mph5.6 kmh 30.13 in1020.3 mb - 0.00 in0.0 mm 0.00 in0.0 mm
10:40 AM 36.0°F2.2°C 17.2°F-8.2°C 46% 4.6 mph N7.4 kmh N 8.1 mph13.0 kmh 30.13 in1020.3 mb - 0.00 in0.0 mm 0.00 in0.0 mm
10:50 AM 36.9°F2.7°C 18.0°F-7.8°C 46% 3.5 mph W5.6 kmh W 3.5 mph5.6 kmh 30.13 in1020.3 mb - 0.00 in0.0 mm 0.00 in0.0 mm
11:00 AM 37.8°F3.2°C 16.7°F-8.5°C 42% 5.8 mph NE9.3 kmh NE 11.5 mph18.5 kmh 30.13 in1020.3 mb - 0.00 in0.0 mm 0.00 in0.0 mm
11:10 AM 37.5°F3.1°C 17.5°F-8.1°C 44% 2.3 mph N3.7 kmh N 5.8 mph9.3 kmh 30.13 in1020.3 mb - 0.00 in0.0 mm 0.00 in0.0 mm
11:20 AM 37.2°F2.9°C 16.2°F-8.8°C 42% 3.5 mph NW5.6 kmh NW 8.1 mph13.0 kmh 30.13 in1020.3 mb - 0.00 in0.0 mm 0.00 in0.0 mm
11:30 AM 37.9°F3.3°C 17.4°F-8.1°C 43% 4.6 mph NW7.4 kmh NW 3.5 mph5.6 kmh 30.13 in1020.3 mb - 0.00 in0.0 mm 0.00 in0.0 mm
11:40 AM 38.2°F3.4°C 17.1°F-8.3°C 42% 2.3 mph NNW3.7 kmh NNW 3.5 mph5.6 kmh 30.13 in1020.3 mb - 0.00 in0.0 mm 0.00 in0.0 mm
11:50 AM 39.1°F3.9°C 16.7°F-8.5°C 40% 4.6 mph N7.4 kmh N 13.8 mph22.2 kmh 30.14 in1020.7 mb - 0.00 in0.0 mm 0.00 in0.0 mm
12:00 PM 39.1°F3.9°C 17.4°F-8.1°C 41% 4.6 mph N7.4 kmh N 10.4 mph16.7 kmh 30.14 in1020.7 mb - 0.00 in0.0 mm 0.00 in0.0 mm
12:10 PM 38.3°F3.5°C 17.2°F-8.2°C 42% 5.8 mph ENE9.3 kmh ENE 8.1 mph13.0 kmh 30.14 in1020.7 mb - 0.00 in0.0 mm 0.00 in0.0 mm
12:20 PM 38.7°F3.7°C 17.5°F-8.1°C 42% 2.3 mph NE3.7 kmh NE 3.5 mph5.6 kmh 30.14 in1020.7 mb - 0.00 in0.0 mm 0.00 in0.0 mm
12:30 PM 39.0°F3.9°C 16.7°F-8.5°C 40% 4.6 mph NNW7.4 kmh NNW 10.4 mph16.7 kmh 30.15 in1021.0 mb - 0.00 in0.0 mm 0.00 in0.0 mm
12:40 PM 39.2°F4.0°C 15.7°F-9.1°C 38% 3.5 mph NNE5.6 kmh NNE 4.6 mph7.4 kmh 30.15 in1021.0 mb - 0.00 in0.0 mm 0.00 in0.0 mm
12:50 PM 39.4°F4.1°C 16.5°F-8.6°C 39% 2.3 mph NNW3.7 kmh NNW 4.6 mph7.4 kmh 30.16 in1021.3 mb - 0.00 in0.0 mm 0.00 in0.0 mm
01:00 PM 39.6°F4.2°C 14.8°F-9.6°C 36% 6.9 mph N11.1 kmh N 9.2 mph14.8 kmh 30.16 in1021.3 mb - 0.00 in0.0 mm 0.00 in0.0 mm
01:10 PM 39.1°F3.9°C 15.6°F-9.1°C 38% 6.9 mph NE11.1 kmh NE 11.5 mph18.5 kmh 30.15 in1021.0 mb - 0.00 in0.0 mm 0.00 in0.0 mm
01:20 PM 39.9°F4.4°C 15.7°F-9.1°C 37% 4.6 mph NNE7.4 kmh NNE 4.6 mph7.4 kmh 30.15 in1021.0 mb - 0.00 in0.0 mm 0.00 in0.0 mm
01:30 PM 40.7°F4.8°C 15.1°F-9.4°C 35% 4.6 mph 7.4 kmh 10.4 mph16.7 kmh 30.16 in1021.3 mb - 0.00 in0.0 mm 0.00 in0.0 mm
01:40 PM 40.7°F4.8°C 15.8°F-9.0°C 36% 2.3 mph NE3.7 kmh NE 3.5 mph5.6 kmh 30.16 in1021.3 mb - 0.00 in0.0 mm 0.00 in0.0 mm
01:50 PM 40.6°F4.8°C 15.0°F-9.4°C 35% 2.3 mph N3.7 kmh N 2.3 mph3.7 kmh 30.16 in1021.3 mb - 0.00 in0.0 mm 0.00 in0.0 mm
02:00 PM 40.6°F4.8°C 14.4°F-9.8°C 34% 3.5 mph NNE5.6 kmh NNE 6.9 mph11.1 kmh 30.17 in1021.7 mb - 0.00 in0.0 mm 0.00 in0.0 mm
02:10 PM 40.9°F4.9°C 14.6°F-9.7°C 34% 3.5 mph NW5.6 kmh NW 4.6 mph7.4 kmh 30.17 in1021.7 mb - 0.00 in0.0 mm 0.00 in0.0 mm
02:20 PM 40.8°F4.9°C 15.2°F-9.3°C 35% 3.5 mph N5.6 kmh N 6.9 mph11.1 kmh 30.17 in1021.7 mb - 0.00 in0.0 mm 0.00 in0.0 mm
02:30 PM 40.5°F4.7°C 14.3°F-9.8°C 34% 2.3 mph NNE3.7 kmh NNE 4.6 mph7.4 kmh 30.17 in1021.7 mb - 0.00 in0.0 mm 0.00 in0.0 mm
02:40 PM 40.0°F4.4°C 13.8°F-10.1°C 34% 2.3 mph NNE3.7 kmh NNE 3.5 mph5.6 kmh 30.17 in1021.7 mb - 0.00 in0.0 mm 0.00 in0.0 mm
02:50 PM 40.2°F4.6°C 14.0°F-10.0°C 34% 2.3 mph W3.7 kmh W 3.5 mph5.6 kmh 30.18 in1022.0 mb - 0.00 in0.0 mm 0.00 in0.0 mm
03:00 PM 39.8°F4.3°C 14.3°F-9.8°C 35% 2.3 mph N3.7 kmh N 3.5 mph5.6 kmh 30.18 in1022.0 mb - 0.00 in0.0 mm 0.00 in0.0 mm
03:10 PM 39.5°F4.2°C 12.8°F-10.7°C 33% 3.5 mph NNE5.6 kmh NNE 8.1 mph13.0 kmh 30.18 in1022.0 mb - 0.00 in0.0 mm 0.00 in0.0 mm
03:20 PM 38.8°F3.8°C 12.1°F-11.1°C 33% 3.5 mph NNW5.6 kmh NNW 4.6 mph7.4 kmh 30.18 in1022.0 mb - 0.00 in0.0 mm 0.00 in0.0 mm
03:30 PM 38.3°F3.5°C 11.7°F-11.3°C 33% 2.3 mph NNW3.7 kmh NNW 3.5 mph5.6 kmh 30.18 in1022.0 mb - 0.00 in0.0 mm 0.00 in0.0 mm
03:40 PM 38.1°F3.4°C 12.8°F-10.7°C 35% 3.5 mph NE5.6 kmh NE 6.9 mph11.1 kmh 30.19 in1022.4 mb - 0.00 in0.0 mm 0.00 in0.0 mm
03:50 PM 37.7°F3.2°C 11.8°F-11.2°C 34% 3.5 mph N5.6 kmh N 9.2 mph14.8 kmh 30.20 in1022.7 mb - 0.00 in0.0 mm 0.00 in0.0 mm
04:00 PM 37.4°F3.0°C 12.8°F-10.7°C 36% 1.2 mph WNW1.9 kmh WNW 2.3 mph3.7 kmh 30.20 in1022.7 mb - 0.00 in0.0 mm 0.00 in0.0 mm
04:10 PM 37.5°F3.1°C 12.9°F-10.6°C 36% 2.3 mph N3.7 kmh N 3.5 mph5.6 kmh 30.20 in1022.7 mb - 0.00 in0.0 mm 0.00 in0.0 mm
04:20 PM 37.4°F3.0°C 14.1°F-9.9°C 38% 1.2 mph NW1.9 kmh NW 3.5 mph5.6 kmh 30.20 in1022.7 mb - 0.00 in0.0 mm 0.00 in0.0 mm
04:30 PM 37.3°F2.9°C 12.7°F-10.7°C 36% 1.2 mph NNW1.9 kmh NNW 2.3 mph3.7 kmh 30.21 in1023.0 mb - 0.00 in0.0 mm 0.00 in0.0 mm
04:40 PM 37.1°F2.8°C 15.0°F-9.4°C 40% Calm Calm 2.3 mph3.7 kmh 30.21 in1023.0 mb - 0.00 in0.0 mm 0.00 in0.0 mm
04:50 PM 36.9°F2.7°C 12.4°F-10.9°C 36% 3.5 mph N5.6 kmh N 6.9 mph11.1 kmh 30.22 in1023.4 mb - 0.00 in0.0 mm 0.00 in0.0 mm
05:00 PM 36.5°F2.5°C 13.3°F-10.4°C 38% 2.3 mph N3.7 kmh N 3.5 mph5.6 kmh 30.22 in1023.4 mb - 0.00 in0.0 mm 0.00 in0.0 mm
05:10 PM 36.2°F2.3°C 12.4°F-10.9°C 37% 2.3 mph NE3.7 kmh NE 3.5 mph5.6 kmh 30.23 in1023.7 mb - 0.00 in0.0 mm 0.00 in0.0 mm
05:30 PM 35.7°F2.1°C 12.5°F-10.8°C 38% 2.3 mph NNW3.7 kmh NNW 3.5 mph5.6 kmh 30.24 in1024.0 mb - 0.00 in0.0 mm 0.00 in0.0 mm
05:40 PM 35.4°F1.9°C 12.9°F-10.6°C 39% 2.3 mph N3.7 kmh N 3.5 mph5.6 kmh 30.25 in1024.4 mb - 0.00 in0.0 mm 0.00 in0.0 mm
05:50 PM 35.1°F1.7°C 13.2°F-10.4°C 40% 1.2 mph N1.9 kmh N 1.2 mph1.9 kmh 30.25 in1024.4 mb - 0.00 in0.0 mm 0.00 in0.0 mm
06:00 PM 34.7°F1.5°C 15.0°F-9.4°C 44% 2.3 mph W3.7 kmh W 3.5 mph5.6 kmh 30.26 in1024.7 mb - 0.00 in0.0 mm 0.00 in0.0 mm
06:10 PM 34.3°F1.3°C 13.6°F-10.2°C 42% 1.2 mph NW1.9 kmh NW 1.2 mph1.9 kmh 30.27 in1025.1 mb - 0.00 in0.0 mm 0.00 in0.0 mm
06:20 PM 33.9°F1.1°C 14.3°F-9.8°C 44% Calm Calm -- 30.27 in1025.1 mb - 0.00 in0.0 mm 0.00 in0.0 mm
06:30 PM 33.5°F0.8°C 14.4°F-9.8°C 45% Calm Calm -- 30.27 in1025.1 mb - 0.00 in0.0 mm 0.00 in0.0 mm
06:40 PM 32.9°F0.5°C 14.4°F-9.8°C 46% Calm Calm -- 30.28 in1025.4 mb - 0.00 in0.0 mm 0.00 in0.0 mm
06:50 PM 32.4°F0.2°C 15.3°F-9.3°C 49% Calm Calm -- 30.28 in1025.4 mb - 0.00 in0.0 mm 0.00 in0.0 mm
07:00 PM 31.9°F-0.1°C 15.8°F-9.0°C 51% Calm Calm -- 30.29 in1025.7 mb - 0.00 in0.0 mm 0.00 in0.0 mm
07:10 PM 31.2°F-0.4°C 16.0°F-8.9°C 53% Calm Calm -- 30.30 in1026.1 mb - 0.00 in0.0 mm 0.00 in0.0 mm
07:20 PM 30.7°F-0.7°C 16.0°F-8.9°C 54% Calm Calm -- 30.30 in1026.1 mb - 0.00 in0.0 mm 0.00 in0.0 mm
07:30 PM 30.3°F-0.9°C 16.5°F-8.6°C 56% Calm Calm -- 30.31 in1026.4 mb - 0.00 in0.0 mm 0.00 in0.0 mm
07:40 PM 29.9°F-1.2°C 16.9°F-8.4°C 58% Calm Calm -- 30.32 in1026.8 mb - 0.00 in0.0 mm 0.00 in0.0 mm
07:50 PM 29.4°F-1.4°C 17.2°F-8.2°C 60% Calm Calm -- 30.32 in1026.8 mb - 0.00 in0.0 mm 0.00 in0.0 mm
08:00 PM 29.0°F-1.7°C 17.2°F-8.2°C 61% Calm Calm -- 30.32 in1026.8 mb - 0.00 in0.0 mm 0.00 in0.0 mm
08:10 PM 28.7°F-1.8°C 17.3°F-8.2°C 62% Calm Calm -- 30.33 in1027.1 mb - 0.00 in0.0 mm 0.00 in0.0 mm
08:20 PM 28.5°F-1.9°C 17.5°F-8.1°C 63% Calm Calm -- 30.33 in1027.1 mb - 0.00 in0.0 mm 0.00 in0.0 mm
08:30 PM 28.3°F-2.1°C 17.3°F-8.2°C 63% Calm Calm -- 30.34 in1027.4 mb - 0.00 in0.0 mm 0.00 in0.0 mm
08:40 PM 28.0°F-2.2°C 17.4°F-8.1°C 64% Calm Calm -- 30.34 in1027.4 mb - 0.00 in0.0 mm 0.00 in0.0 mm
08:50 PM 27.8°F-2.3°C 17.9°F-7.8°C 66% Calm Calm -- 30.35 in1027.8 mb - 0.00 in0.0 mm 0.00 in0.0 mm
09:00 PM 27.5°F-2.5°C 17.6°F-8.0°C 66% Calm Calm -- 30.35 in1027.8 mb - 0.00 in0.0 mm 0.00 in0.0 mm
09:10 PM 27.2°F-2.7°C 18.0°F-7.8°C 68% Calm Calm -- 30.35 in1027.8 mb - 0.00 in0.0 mm 0.00 in0.0 mm
09:20 PM 27.0°F-2.8°C 18.2°F-7.7°C 69% Calm Calm -- 30.35 in1027.8 mb - 0.00 in0.0 mm 0.00 in0.0 mm
09:30 PM 26.7°F-2.9°C 18.2°F-7.7°C 70% Calm Calm -- 30.36 in1028.1 mb - 0.00 in0.0 mm 0.00 in0.0 mm
09:40 PM 26.5°F-3.1°C 18.4°F-7.6°C 71% Calm Calm -- 30.36 in1028.1 mb - 0.00 in0.0 mm 0.00 in0.0 mm
09:50 PM 26.3°F-3.2°C 18.5°F-7.5°C 72% Calm Calm -- 30.36 in1028.1 mb - 0.00 in0.0 mm 0.00 in0.0 mm
10:00 PM 26.1°F-3.3°C 18.3°F-7.6°C 72% Calm Calm -- 30.36 in1028.1 mb - 0.00 in0.0 mm 0.00 in0.0 mm
10:10 PM 25.9°F-3.4°C 18.4°F-7.6°C 73% Calm Calm -- 30.37 in1028.4 mb - 0.00 in0.0 mm 0.00 in0.0 mm
10:20 PM 25.7°F-3.5°C 18.9°F-7.3°C 75% Calm Calm -- 30.37 in1028.4 mb - 0.00 in0.0 mm 0.00 in0.0 mm
10:30 PM 25.4°F-3.7°C 18.6°F-7.4°C 75% Calm Calm -- 30.38 in1028.8 mb - 0.00 in0.0 mm 0.00 in0.0 mm
10:40 PM 25.2°F-3.8°C 18.7°F-7.4°C 76% Calm Calm -- 30.38 in1028.8 mb - 0.00 in0.0 mm 0.00 in0.0 mm
10:50 PM 25.1°F-3.8°C 18.6°F-7.4°C 76% Calm Calm -- 30.38 in1028.8 mb - 0.00 in0.0 mm 0.00 in0.0 mm
11:00 PM 24.9°F-3.9°C 18.7°F-7.4°C 77% Calm Calm -- 30.38 in1028.8 mb - 0.00 in0.0 mm 0.00 in0.0 mm
11:10 PM 24.6°F-4.1°C 18.7°F-7.4°C 78% Calm Calm -- 30.38 in1028.8 mb - 0.00 in0.0 mm 0.00 in0.0 mm
11:20 PM 24.5°F-4.2°C 18.6°F-7.4°C 78% Calm Calm -- 30.38 in1028.8 mb - 0.00 in0.0 mm 0.00 in0.0 mm
11:30 PM 24.3°F-4.3°C 18.7°F-7.4°C 79% Calm Calm -- 30.39 in1029.1 mb - 0.00 in0.0 mm 0.00 in0.0 mm
11:40 PM 24.1°F-4.4°C 18.9°F-7.3°C 80% Calm Calm -- 30.39 in1029.1 mb - 0.00 in0.0 mm 0.00 in0.0 mm
11:50 PM 23.9°F-4.5°C 18.6°F-7.4°C 80% Calm Calm -- 30.39 in1029.1 mb - 0.00 in0.0 mm 0.00 in0.0 mm